Time;durP1;ratioP1;P1;durP2;ratioP2;P2;SDS_P1;SDS_P2;PMS_P1;PMS_P2;Temp;Humidity;BMP_temperature;BMP_pressure;BME280_temperature;BME280_humidity;BME280_pressure;Samples;Min_cycle;Max_cycle;Signal;HPM_P1;HPM_P2
2022/04/23 00:01:44;;;;;;;;;;;;;;;19.38;40.64;100247.38;7282751;19;152674;-65
2022/04/23 00:04:11;;;;;;;;;;;;;;;19.35;40.95;100248.81;7280822;19;153330;-66
2022/04/23 00:06:38;;;;;;;;;;;;;;;19.37;40.77;100251.31;7283028;19;151762;-65
2022/04/23 00:09:05;;;;;;;;;;;;;;;19.38;40.53;100241.75;7282263;19;152728;-64
2022/04/23 00:11:32;;;;;;;;;;;;;;;19.37;40.67;100237.31;7281271;19;154237;-65
2022/04/23 00:13:59;;;;;;;;;;;;;;;19.36;40.55;100230.03;7280334;19;152830;-63
2022/04/23 00:16:28;;;;;;;;;;;;;;;19.34;41.06;100230.38;7281153;19;152757;-62
2022/04/23 00:18:56;;;;;;;;;;;;;;;19.36;40.68;100227.22;7281192;19;153269;-63
2022/04/23 00:21:23;;;;;;;;;;;;;;;19.36;40.96;100227.22;7287044;19;151689;-63
2022/04/23 00:23:49;;;;;;;;;;;;;;;19.35;40.73;100222.81;7280900;19;153698;-65
2022/04/23 00:26:16;;;;;;;;;;;;;;;19.37;40.64;100223.28;7282029;19;152461;-66
2022/04/23 00:28:43;;;;;;;;;;;;;;;19.33;41.03;100225.91;7282439;19;153098;-63
2022/04/23 00:31:10;;;;;;;;;;;;;;;19.32;40.81;100226.22;7281204;19;152657;-61
2022/04/23 00:33:37;;;;;;;;;;;;;;;19.34;40.98;100219.16;7279472;19;151931;-63
2022/04/23 00:36:05;;;;;;;;;;;;;;;19.32;40.79;100226.22;7280540;19;151699;-61
2022/04/23 00:38:33;;;;;;;;;;;;;;;19.32;40.85;100220.63;7277999;19;153282;-64
2022/04/23 00:40:59;;;;;;;;;;;;;;;19.29;40.91;100212.84;7287798;19;151693;-68
2022/04/23 00:43:27;;;;;;;;;;;;;;;19.30;40.87;100200.53;7294668;19;151783;-64
2022/04/23 00:45:55;;;;;;;;;;;;;;;19.32;40.81;100215.00;7287807;19;152220;-61
2022/04/23 00:48:22;;;;;;;;;;;;;;;19.30;41.19;100214.53;7288384;19;154257;-67
2022/04/23 00:50:49;;;;;;;;;;;;;;;19.30;40.90;100218.16;7286803;19;153956;-63
2022/04/23 00:53:16;;;;;;;;;;;;;;;19.30;40.92;100201.34;7287332;19;152217;-61
2022/04/23 00:55:44;;;;;;;;;;;;;;;19.29;41.28;100210.06;7287271;19;151723;-61
2022/04/23 00:58:10;;;;;;;;;;;;;;;19.29;41.17;100205.28;7283564;19;153960;-65
2022/04/23 01:00:40;;;;;;;;;;;;;;;19.29;41.06;100198.84;7287171;19;151664;-64
2022/04/23 01:03:07;;;;;;;;;;;;;;;19.29;41.32;100207.25;7286794;19;154422;-62
2022/04/23 01:05:34;;;;;;;;;;;;;;;19.29;40.96;100202.50;7293546;19;152123;-66
2022/04/23 01:08:04;;;;;;;;;;;;;;;19.29;41.14;100198.84;7286578;19;152595;-64
2022/04/23 01:10:31;;;;;;;;;;;;;;;19.28;41.15;100195.22;7285891;19;154515;-63
2022/04/23 01:12:58;;;;;;;;;;;;;;;19.29;41.00;100198.84;7284271;19;155275;-66
2022/04/23 01:15:24;;;;;;;;;;;;;;;19.26;41.11;100189.09;7285339;19;153873;-66
2022/04/23 01:17:51;;;;;;;;;;;;;;;19.29;41.33;100193.25;7283708;19;154273;-63
2022/04/23 01:20:18;;;;;;;;;;;;;;;19.26;41.44;100189.09;7287112;19;151896;-62
2022/04/23 01:22:45;;;;;;;;;;;;;;;19.26;41.57;100185.50;7285991;19;154433;-67
2022/04/23 01:25:22;;;;;;;;;;;;;;;19.26;41.15;100183.50;7270300;19;155727;-65
2022/04/23 01:27:54;;;;;;;;;;;;;;;19.28;41.33;100181.22;7274983;19;152530;-64
2022/04/23 01:30:21;;;;;;;;;;;;;;;19.24;41.47;100174.59;7284414;19;152333;-62
2022/04/23 01:32:48;;;;;;;;;;;;;;;19.25;41.15;100173.47;7286880;19;152106;-66
2022/04/23 01:35:15;;;;;;;;;;;;;;;19.24;41.62;100168.19;7286196;19;152732;-66
2022/04/23 01:37:43;;;;;;;;;;;;;;;19.24;41.48;100173.78;7282545;19;153162;-63
2022/04/23 01:40:11;;;;;;;;;;;;;;;19.22;41.49;100171.28;7285717;19;151786;-65
2022/04/23 01:42:38;;;;;;;;;;;;;;;19.24;41.31;100179.38;7282542;19;153244;-66
2022/04/23 01:45:05;;;;;;;;;;;;;;;19.23;41.33;100175.75;7284551;19;153940;-64
2022/04/23 01:47:32;;;;;;;;;;;;;;;19.21;41.64;100174.44;7293993;19;153414;-66
2022/04/23 01:49:59;;;;;;;;;;;;;;;19.21;41.26;100175.25;7282864;19;154132;-65
2022/04/23 01:52:26;;;;;;;;;;;;;;;19.21;41.32;100169.66;7284366;19;152737;-65
2022/04/23 01:54:53;;;;;;;;;;;;;;;19.19;41.66;100177.53;7285779;19;154415;-63
2022/04/23 01:57:20;;;;;;;;;;;;;;;19.21;41.54;100171.63;7282805;19;152574;-67
2022/04/23 01:59:47;;;;;;;;;;;;;;;19.20;41.44;100167.16;7284073;19;151719;-64
2022/04/23 02:02:13;;;;;;;;;;;;;;;19.20;41.35;100162.38;7283186;19;153394;-62
2022/04/23 02:04:40;;;;;;;;;;;;;;;19.18;41.72;100167.47;7285424;19;153200;-64
2022/04/23 02:07:07;;;;;;;;;;;;;;;19.21;41.32;100161.25;7285328;19;152008;-68
2022/04/23 02:09:34;;;;;;;;;;;;;;;19.19;41.74;100160.72;7292101;19;153656;-61
2022/04/23 02:12:00;;;;;;;;;;;;;;;19.18;41.51;100155.44;7284162;19;151859;-67
2022/04/23 02:14:28;;;;;;;;;;;;;;;19.19;41.71;100159.91;7283912;19;153416;-63
2022/04/23 02:16:55;;;;;;;;;;;;;;;19.18;41.93;100158.25;7255886;19;154236;-65
2022/04/23 02:19:22;;;;;;;;;;;;;;;19.20;41.47;100154.00;7284513;19;151808;-66
2022/04/23 02:21:48;;;;;;;;;;;;;;;19.18;41.58;100156.25;7283675;19;153776;-68
2022/04/23 02:24:16;;;;;;;;;;;;;;;19.19;41.62;100141.13;7272532;19;153262;-64
2022/04/23 02:26:42;;;;;;;;;;;;;;;19.19;41.64;100145.91;7266977;19;152519;-66
2022/04/23 02:29:09;;;;;;;;;;;;;;;19.20;41.83;100148.38;7262273;19;154511;-65
2022/04/23 02:31:36;;;;;;;;;;;;;;;19.18;41.79;100141.44;7276901;19;154471;-66
2022/04/23 02:34:02;;;;;;;;;;;;;;;19.18;41.70;100139.47;7266040;19;154594;-65
2022/04/23 02:36:30;;;;;;;;;;;;;;;19.16;41.84;100140.94;7260726;19;155208;-61
2022/04/23 02:38:58;;;;;;;;;;;;;;;19.16;41.98;100140.94;7266094;19;153718;-66
2022/04/23 02:41:25;;;;;;;;;;;;;;;19.15;41.67;100128.91;7263413;19;154375;-64
2022/04/23 02:43:51;;;;;;;;;;;;;;;19.15;41.73;100128.09;7265066;19;153680;-66
2022/04/23 02:46:18;;;;;;;;;;;;;;;19.15;42.00;100122.47;7261119;19;155279;-67
2022/04/23 02:48:45;;;;;;;;;;;;;;;19.12;41.91;100118.38;7266085;19;154765;-64
2022/04/23 02:51:15;;;;;;;;;;;;;;;19.12;42.00;100121.16;7261929;19;154550;-63
2022/04/23 02:53:43;;;;;;;;;;;;;;;19.14;41.98;100118.84;7267729;19;154783;-63
2022/04/23 02:56:16;;;;;;;;;;;;;;;19.14;42.05;100118.84;7273063;19;153758;-61
2022/04/23 02:58:44;;;;;;;;;;;;;;;19.14;42.13;100118.84;7267409;19;154249;-65
2022/04/23 03:01:10;;;;;;;;;;;;;;;19.16;41.83;100110.97;7267911;19;154877;-62
2022/04/23 03:03:38;;;;;;;;;;;;;;;19.14;42.00;100106.81;7265649;19;153927;-65
2022/04/23 03:06:07;;;;;;;;;;;;;;;19.14;41.87;100106.81;7262132;19;152506;-65
2022/04/23 03:08:40;;;;;;;;;;;;;;;19.12;41.83;100095.97;7261589;19;154180;-63
2022/04/23 03:11:08;;;;;;;;;;;;;;;19.12;41.75;100097.94;7259921;19;154032;-62
2022/04/23 03:13:35;;;;;;;;;;;;;;;19.13;41.76;100094.78;7282376;19;154339;-65
2022/04/23 03:16:02;;;;;;;;;;;;;;;19.13;42.27;100091.16;7248044;19;154350;-64
2022/04/23 03:18:29;;;;;;;;;;;;;;;19.14;41.77;100090.03;7261445;19;152692;-65
2022/04/23 03:20:58;;;;;;;;;;;;;;;19.14;42.09;100090.03;7271303;19;154308;-63
2022/04/23 03:23:25;;;;;;;;;;;;;;;19.13;42.20;100094.78;7260771;19;154322;-65
2022/04/23 03:25:51;;;;;;;;;;;;;;;19.14;41.92;100087.22;7257949;19;152712;-64
2022/04/23 03:28:20;;;;;;;;;;;;;;;19.13;42.01;100092.00;7260784;19;155531;-64
2022/04/23 03:30:47;;;;;;;;;;;;;;;19.10;42.04;100092.63;7264768;19;154582;-65
2022/04/23 03:33:14;;;;;;;;;;;;;;;19.12;41.84;100095.13;7260817;19;154527;-65
2022/04/23 03:35:41;;;;;;;;;;;;;;;19.13;42.19;100094.78;7266039;19;155231;-65
2022/04/23 03:38:08;;;;;;;;;;;;;;;19.11;41.83;100083.09;7253973;19;152765;-63
2022/04/23 03:40:36;;;;;;;;;;;;;;;19.15;42.15;100086.91;7256975;19;155888;-61
2022/04/23 03:43:03;;;;;;;;;;;;;;;19.14;41.83;100079.66;7259101;19;154078;-63
2022/04/23 03:45:32;;;;;;;;;;;;;;;19.12;42.43;100083.94;7261892;19;153490;-65
2022/04/23 03:48:01;;;;;;;;;;;;;;;19.10;41.91;100073.03;7258671;19;157570;-62
2022/04/23 03:50:29;;;;;;;;;;;;;;;19.10;42.33;100064.66;7257232;19;155086;-64
2022/04/23 03:52:56;;;;;;;;;;;;;;;19.12;42.02;100067.13;7260011;19;153617;-66
2022/04/23 03:55:25;;;;;;;;;;;;;;;19.10;42.01;100059.03;7259368;19;154453;-64
2022/04/23 03:57:54;;;;;;;;;;;;;;;19.07;42.29;100065.28;7263505;19;156450;-68
2022/04/23 04:00:21;;;;;;;;;;;;;;;19.09;42.24;100058.22;7256320;19;154112;-63
2022/04/23 04:02:48;;;;;;;;;;;;;;;19.09;42.38;100052.63;7260180;19;153968;-67
2022/04/23 04:05:16;;;;;;;;;;;;;;;19.08;42.45;100059.34;7259176;19;155010;-64
2022/04/23 04:07:43;;;;;;;;;;;;;;;19.10;42.26;100064.66;7260960;19;154024;-66
2022/04/23 04:10:11;;;;;;;;;;;;;;;19.09;42.25;100060.19;7257297;19;154235;-66
2022/04/23 04:12:38;;;;;;;;;;;;;;;19.08;42.34;100053.75;7260328;19;152854;-62
2022/04/23 04:15:06;;;;;;;;;;;;;;;19.07;42.65;100057.72;7238301;19;155230;-67
2022/04/23 04:17:34;;;;;;;;;;;;;;;19.08;42.33;100052.94;7245446;19;154971;-63
2022/04/23 04:20:01;;;;;;;;;;;;;;;19.08;42.18;100064.94;7270552;19;152661;-64
2022/04/23 04:22:28;;;;;;;;;;;;;;;19.09;42.14;100051.78;7257654;19;154265;-63
2022/04/23 04:24:55;;;;;;;;;;;;;;;19.06;42.49;100056.06;7263684;19;154197;-63
2022/04/23 04:27:21;;;;;;;;;;;;;;;19.10;42.16;100056.25;7254898;19;154002;-63
2022/04/23 04:29:48;;;;;;;;;;;;;;;19.08;42.43;100052.94;7251425;19;153456;-61
2022/04/23 04:32:15;;;;;;;;;;;;;;;19.09;42.38;100051.78;7256462;19;154058;-64
2022/04/23 04:34:42;;;;;;;;;;;;;;;19.05;42.64;100053.56;7259117;19;153459;-62
2022/04/23 04:37:09;;;;;;;;;;;;;;;19.07;42.41;100059.69;7252136;19;154238;-63
2022/04/23 04:39:37;;;;;;;;;;;;;;;19.07;42.41;100059.69;7263729;19;154854;-64
2022/04/23 04:42:05;;;;;;;;;;;;;;;19.06;42.39;100061.66;7272539;19;153599;-62
2022/04/23 04:44:32;;;;;;;;;;;;;;;19.04;42.44;100063.94;7256906;19;153591;-66
2022/04/23 04:46:59;;;;;;;;;;;;;;;19.06;42.58;100064.47;7260424;19;154396;-63
2022/04/23 04:49:26;;;;;;;;;;;;;;;19.05;42.81;100067.56;7262999;19;153752;-64
2022/04/23 04:51:53;;;;;;;;;;;;;;;19.05;42.48;100059.19;7259790;19;154506;-62
2022/04/23 04:54:21;;;;;;;;;;;;;;;19.07;42.18;100063.31;7256668;19;154655;-62
2022/04/23 04:56:49;;;;;;;;;;;;;;;19.05;42.51;100070.38;7256482;19;154083;-66
2022/04/23 04:59:16;;;;;;;;;;;;;;;19.07;42.26;100065.28;7255012;19;153091;-61
2022/04/23 05:01:43;;;;;;;;;;;;;;;19.05;42.44;100065.59;7257550;19;154029;-66
2022/04/23 05:04:10;;;;;;;;;;;;;;;19.06;42.39;100070.06;7265311;19;154036;-62
2022/04/23 05:06:37;;;;;;;;;;;;;;;19.05;42.43;100073.16;7260708;19;154098;-66
2022/04/23 05:09:04;;;;;;;;;;;;;;;19.04;42.74;100063.94;7256143;19;153140;-60
2022/04/23 05:11:31;;;;;;;;;;;;;;;19.06;42.24;100066.44;7259131;19;154281;-64
2022/04/23 05:13:58;;;;;;;;;;;;;;;19.07;42.20;100062.50;7255203;19;152534;-67
2022/04/23 05:16:25;;;;;;;;;;;;;;;19.04;42.24;100065.91;7226184;19;155668;-63
2022/04/23 05:18:51;;;;;;;;;;;;;;;19.05;42.69;100054.41;7255050;19;152371;-65
2022/04/23 05:21:18;;;;;;;;;;;;;;;19.06;42.39;100058.03;7254925;19;155832;-63
2022/04/23 05:23:45;;;;;;;;;;;;;;;19.04;42.52;100063.13;7263581;19;154216;-63
2022/04/23 05:26:12;;;;;;;;;;;;;;;19.02;42.77;100057.84;7264743;19;154190;-62
2022/04/23 05:28:41;;;;;;;;;;;;;;;19.04;42.48;100060.31;7261137;19;153218;-61
2022/04/23 05:31:11;;;;;;;;;;;;;;;19.05;42.43;100068.41;7265830;19;153616;-66
2022/04/23 05:33:38;;;;;;;;;;;;;;;19.06;42.43;100066.44;7263797;19;153661;-64
2022/04/23 05:36:06;;;;;;;;;;;;;;;19.04;42.58;100063.13;7259723;19;155214;-64
2022/04/23 05:38:36;;;;;;;;;;;;;;;19.03;42.55;100059.47;7260581;19;153917;-65
2022/04/23 05:41:06;;;;;;;;;;;;;;;19.01;42.60;100067.41;7260762;19;153470;-62
2022/04/23 05:43:36;;;;;;;;;;;;;;;19.02;42.49;100068.22;7263433;19;153887;-63
2022/04/23 05:46:03;;;;;;;;;;;;;;;18.97;43.02;100069.19;7273109;19;154530;-65
2022/04/23 05:48:30;;;;;;;;;;;;;;;19.00;42.61;100068.53;7266053;19;156535;-63
2022/04/23 05:50:57;;;;;;;;;;;;;;;19.02;42.43;100071.03;7265079;19;153010;-63
2022/04/23 05:53:24;;;;;;;;;;;;;;;19.02;42.42;100073.81;7262942;19;153958;-65
2022/04/23 05:55:50;;;;;;;;;;;;;;;19.03;42.44;100067.09;7267692;19;154877;-63
2022/04/23 05:58:17;;;;;;;;;;;;;;;19.02;42.66;100071.03;7271766;19;153593;-62
2022/04/23 06:00:44;;;;;;;;;;;;;;;19.01;42.73;100070.19;7262443;19;153351;-61
2022/04/23 06:03:11;;;;;;;;;;;;;;;19.00;42.30;100074.13;7262239;19;156099;-62
2022/04/23 06:05:38;;;;;;;;;;;;;;;19.00;42.21;100068.53;7261833;19;152841;-62
2022/04/23 06:08:05;;;;;;;;;;;;;;;19.02;42.31;100076.63;7273271;19;154043;-61
2022/04/23 06:10:32;;;;;;;;;;;;;;;19.01;42.38;100075.78;7261707;19;153457;-66
2022/04/23 06:12:58;;;;;;;;;;;;;;;19.02;42.30;100077.44;7263458;19;155103;-64
2022/04/23 06:15:25;;;;;;;;;;;;;;;19.01;42.77;100074.97;7273956;19;154517;-65
2022/04/23 06:17:52;;;;;;;;;;;;;;;19.00;42.56;100076.09;7261821;19;156217;-66
2022/04/23 06:20:19;;;;;;;;;;;;;;;19.02;42.69;100077.44;7261953;19;152906;-64
2022/04/23 06:22:46;;;;;;;;;;;;;;;19.00;42.54;100074.13;7263114;19;154953;-65
2022/04/23 06:25:13;;;;;;;;;;;;;;;19.02;42.74;100076.63;7262733;19;153045;-64
2022/04/23 06:27:40;;;;;;;;;;;;;;;19.02;42.27;100076.63;7259361;19;154761;-65
2022/04/23 06:30:09;;;;;;;;;;;;;;;19.01;42.36;100075.78;7267265;19;154609;-61
2022/04/23 06:32:39;;;;;;;;;;;;;;;19.03;42.58;100086.69;7263845;19;154144;-63
2022/04/23 06:35:06;;;;;;;;;;;;;;;19.02;42.59;100080.25;7260153;19;154472;-64
2022/04/23 06:37:42;;;;;;;;;;;;;;;19.01;42.54;100083.34;7261283;19;155021;-63
2022/04/23 06:40:11;;;;;;;;;;;;;;;19.00;42.28;100093.72;7261118;19;154087;-63
2022/04/23 06:42:38;;;;;;;;;;;;;;;19.02;42.51;100080.25;7262553;19;153993;-61
2022/04/23 06:45:05;;;;;;;;;;;;;;;19.01;42.14;100091.75;7263517;19;153488;-62
2022/04/23 06:47:32;;;;;;;;;;;;;;;19.01;42.35;100092.59;7260443;19;155009;-62
2022/04/23 06:49:59;;;;;;;;;;;;;;;19.01;42.62;100095.38;7261191;19;153288;-63
2022/04/23 06:52:26;;;;;;;;;;;;;;;19.00;42.29;100090.94;7269702;19;153887;-66
2022/04/23 06:54:54;;;;;;;;;;;;;;;19.00;42.40;100090.09;7262070;19;154146;-63
2022/04/23 06:57:23;;;;;;;;;;;;;;;19.02;42.23;100096.22;7259848;19;155063;-65
2022/04/23 06:59:52;;;;;;;;;;;;;;;19.00;42.46;100092.91;7258957;19;156275;-66
2022/04/23 07:02:19;;;;;;;;;;;;;;;19.00;42.30;100090.94;7258818;19;154158;-64
2022/04/23 07:04:46;;;;;;;;;;;;;;;19.00;42.31;100082.53;7262256;19;153692;-61
2022/04/23 07:07:13;;;;;;;;;;;;;;;19.01;42.60;100080.56;7267684;19;153451;-62
2022/04/23 07:09:40;;;;;;;;;;;;;;;19.00;42.33;100085.31;7274529;19;154090;-63
2022/04/23 07:12:08;;;;;;;;;;;;;;;19.00;42.10;100081.69;7275668;19;153864;-65
2022/04/23 07:14:35;;;;;;;;;;;;;;;19.00;42.40;100096.53;7281355;19;153568;-61
2022/04/23 07:17:06;;;;;;;;;;;;;;;19.02;42.35;100096.22;7278399;19;152413;-64
2022/04/23 07:19:37;;;;;;;;;;;;;;;19.01;42.51;100078.59;7276014;19;153372;-65
2022/04/23 07:22:05;;;;;;;;;;;;;;;18.99;42.36;100089.25;7276027;19;154227;-64
2022/04/23 07:24:32;;;;;;;;;;;;;;;19.00;42.46;100084.50;7277696;19;154266;-66
2022/04/23 07:27:00;;;;;;;;;;;;;;;18.99;42.44;100080.03;7278759;19;153660;-62
2022/04/23 07:29:28;;;;;;;;;;;;;;;19.02;42.18;100085.84;7280087;19;152492;-65
2022/04/23 07:31:56;;;;;;;;;;;;;;;19.02;42.50;100083.06;7273028;19;153526;-64
2022/04/23 07:40:01;;;;;;;;;;;;;;;18.99;42.51;100077.25;7271007;19;155180;-61
2022/04/23 07:42:28;;;;;;;;;;;;;;;18.97;42.59;100071.97;7265110;19;153341;-65
2022/04/23 07:44:55;;;;;;;;;;;;;;;18.99;42.61;100066.88;7276332;19;153871;-61
2022/04/23 07:47:22;;;;;;;;;;;;;;;19.01;42.33;100075.78;7271866;19;153962;-65
2022/04/23 07:49:50;;;;;;;;;;;;;;;19.01;42.62;100078.59;7266139;19;153710;-64
2022/04/23 07:52:17;;;;;;;;;;;;;;;19.00;42.42;100065.72;7277112;19;152477;-65
2022/04/23 07:54:44;;;;;;;;;;;;;;;19.01;42.51;100074.97;7278076;19;154082;-64
2022/04/23 07:57:12;;;;;;;;;;;;;;;19.00;42.85;100064.91;7269193;19;154304;-64
2022/04/23 07:59:41;;;;;;;;;;;;;;;19.01;42.74;100069.38;7264048;19;154279;-66
2022/04/23 08:02:09;;;;;;;;;;;;;;;19.01;42.44;100061.78;7256576;19;156274;-62
2022/04/23 08:04:36;;;;;;;;;;;;;;;19.02;42.35;100071.84;7260692;19;154713;-64
2022/04/23 08:07:03;;;;;;;;;;;;;;;19.00;42.30;100071.34;7257741;19;153224;-63
2022/04/23 08:09:37;;;;;;;;;;;;;;;19.01;42.22;100078.59;7260852;19;153992;-64
2022/04/23 08:12:06;;;;;;;;;;;;;;;19.00;42.40;100076.94;7259720;19;154556;-65
2022/04/23 08:14:33;;;;;;;;;;;;;;;19.01;42.55;100075.78;7259942;19;154001;-62
2022/04/23 08:17:00;;;;;;;;;;;;;;;19.01;42.63;100072.16;7256851;19;155184;-64
2022/04/23 08:19:27;;;;;;;;;;;;;;;19.02;42.36;100069.06;7265442;19;153058;-62
2022/04/23 08:21:54;;;;;;;;;;;;;;;19.01;42.34;100070.19;7258678;19;154882;-65
2022/04/23 08:24:21;;;;;;;;;;;;;;;19.03;42.38;100072.69;7258202;19;153760;-64
2022/04/23 08:26:47;;;;;;;;;;;;;;;19.03;42.59;100073.47;7264956;19;153510;-66
2022/04/23 08:32:00;;;;;;;;;;;;;;;19.01;42.65;100073.00;7265236;19;154328;-62
2022/04/23 08:34:27;;;;;;;;;;;;;;;19.04;42.28;100071.50;7259225;19;155145;-67
2022/04/23 08:36:55;;;;;;;;;;;;;;;19.02;42.39;100079.41;7257387;19;153333;-64
2022/04/23 08:39:22;;;;;;;;;;;;;;;19.02;42.72;100073.81;7255980;19;153917;-66
2022/04/23 08:41:49;;;;;;;;;;;;;;;19.01;42.79;100075.78;7264100;19;153360;-67
2022/04/23 08:44:16;;;;;;;;;;;;;;;19.04;42.53;100075.16;7258199;19;154735;-63
2022/04/23 08:46:44;;;;;;;;;;;;;;;19.03;42.78;100073.47;7258389;19;154100;-62
2022/04/23 08:49:11;;;;;;;;;;;;;;;19.05;42.12;100074.00;7257434;19;154494;-63
2022/04/23 08:51:39;;;;;;;;;;;;;;;19.04;42.20;100083.53;7259199;19;154523;-62
2022/04/23 08:54:07;;;;;;;;;;;;;;;19.05;42.59;100078.78;7259946;19;155081;-62
2022/04/23 08:56:35;;;;;;;;;;;;;;;19.04;42.24;100080.75;7256895;19;154633;-64
2022/04/23 08:59:04;;;;;;;;;;;;;;;19.06;42.10;100074.84;7256546;19;153506;-63
2022/04/23 09:01:31;;;;;;;;;;;;;;;19.06;42.38;100077.63;7262527;19;154695;-65
2022/04/23 09:04:02;;;;;;;;;;;;;;;19.07;42.15;100077.31;7273263;19;153505;-64
2022/04/23 09:06:32;;;;;;;;;;;;;;;19.11;42.23;100091.50;7272006;19;153767;-62
2022/04/23 09:09:13;;;;;;;;;;;;;;;19.08;42.32;100087.34;7262449;19;156087;-64
2022/04/23 09:11:44;;;;;;;;;;;;;;;19.07;42.58;100082.94;7263885;19;153944;-67
2022/04/23 09:14:22;;;;;;;;;;;;;;;19.08;42.35;100083.72;7263712;19;155386;-64
2022/04/23 09:25:10;;;;;;;;;;;;;;;19.14;42.79;100093.66;7265085;19;154477;-64
2022/04/23 09:27:42;;;;;;;;;;;;;;;19.15;42.56;100098.13;7274828;19;152610;-65
2022/04/23 09:30:11;;;;;;;;;;;;;;;19.16;42.27;100102.56;7262455;19;154424;-64
2022/04/23 09:32:54;;;;;;;;;;;;;;;19.17;41.86;100106.19;7264297;19;152167;-66
2022/04/23 09:35:21;;;;;;;;;;;;;;;19.16;42.15;100107.34;7264374;19;154119;-63
2022/04/23 09:40:34;;;;;;;;;;;;;;;19.15;42.01;100100.09;7262084;19;154827;-63
2022/04/23 09:43:02;;;;;;;;;;;;;;;19.17;42.03;100092.19;7263308;19;153518;-61
2022/04/23 09:45:30;;;;;;;;;;;;;;;19.16;42.20;100091.38;7268292;19;154791;-63
2022/04/23 09:48:17;;;;;;;;;;;;;;;19.17;42.28;100093.00;7270475;19;153064;-64
2022/04/23 09:50:46;;;;;;;;;;;;;;;19.20;41.71;100094.34;7260643;19;154605;-66
2022/04/23 09:53:18;;;;;;;;;;;;;;;19.19;41.90;100098.28;7262569;19;154895;-65
2022/04/23 09:55:47;;;;;;;;;;;;;;;19.21;41.73;100084.81;7269050;19;154391;-63
2022/04/23 09:58:14;;;;;;;;;;;;;;;19.22;41.70;100086.44;7268634;19;153391;-62
2022/04/23 10:00:43;;;;;;;;;;;;;;;19.22;41.86;100090.06;7259875;19;154000;-63
2022/04/23 10:03:12;;;;;;;;;;;;;;;19.22;41.52;100090.06;7264283;19;155402;-67
2022/04/23 10:05:41;;;;;;;;;;;;;;;19.25;41.66;100095.06;7261043;19;154288;-65
2022/04/23 10:08:11;;;;;;;;;;;;;;;19.24;41.37;100095.38;7263032;19;154007;-63
2022/04/23 10:10:52;;;;;;;;;;;;;;;19.26;41.62;100087.47;7270673;19;154336;-63
2022/04/23 10:13:25;;;;;;;;;;;;;;;19.25;41.52;100094.22;7259710;19;155063;-62
2022/04/23 10:15:54;;;;;;;;;;;;;;;19.27;41.51;100091.91;7263867;19;154063;-66
2022/04/23 10:18:22;;;;;;;;;;;;;;;19.27;41.60;100094.72;7261994;19;154525;-65
2022/04/23 10:20:55;;;;;;;;;;;;;;;19.27;41.52;100087.13;7267641;19;153988;-63
2022/04/23 10:23:30;;;;;;;;;;;;;;;19.31;41.46;100087.31;7270200;19;153528;-66
2022/04/23 10:26:09;;;;;;;;;;;;;;;19.29;41.75;100084.03;7267715;19;153414;-65
2022/04/23 10:28:47;;;;;;;;;;;;;;;19.30;41.63;100096.88;7268574;19;153670;-65
2022/04/23 10:31:25;;;;;;;;;;;;;;;19.30;41.72;100088.50;7263634;19;152659;-64
2022/04/23 10:33:54;;;;;;;;;;;;;;;19.30;42.04;100078.13;7270176;19;154123;-62
2022/04/23 10:36:22;;;;;;;;;;;;;;;19.30;41.74;100077.28;7262561;19;153441;-65
2022/04/23 10:38:53;;;;;;;;;;;;;;;19.32;41.76;100078.59;7262188;19;154433;-66
2022/04/23 10:41:24;;;;;;;;;;;;;;;19.33;41.40;100074.66;7259684;19;154343;-62
2022/04/23 10:44:00;;;;;;;;;;;;;;;19.35;41.38;100091.16;7264198;19;153920;-63
2022/04/23 10:46:37;;;;;;;;;;;;;;;19.36;41.25;100076.81;7265527;19;153794;-65
2022/04/23 10:49:18;;;;;;;;;;;;;;;19.39;41.72;100089.38;7266122;19;154342;-66
2022/04/23 10:51:47;;;;;;;;;;;;;;;19.43;41.46;100088.44;7262523;19;154809;-66
2022/04/23 10:54:16;;;;;;;;;;;;;;;19.40;41.21;100094.63;7260451;19;153678;-65
2022/04/23 10:56:47;;;;;;;;;;;;;;;19.39;41.37;100092.16;7271142;19;154671;-66
2022/04/23 10:59:38;;;;;;;;;;;;;;;19.43;41.58;100087.56;7262020;19;154043;-64
2022/04/23 11:02:21;;;;;;;;;;;;;;;19.43;41.40;100093.16;7262535;19;153605;-63
2022/04/23 11:13:24;;;;;;;;;;;;;;;19.46;41.29;100090.56;7262397;19;154013;-64
2022/04/23 11:16:13;;;;;;;;;;;;;;;19.49;41.33;100083.47;7266679;19;153961;-65
2022/04/23 11:18:41;;;;;;;;;;;;;;;19.45;41.21;100096.50;7262542;19;154842;-63
2022/04/23 11:21:23;;;;;;;;;;;;;;;19.49;41.25;100086.28;7270161;19;153850;-62
2022/04/23 11:23:51;;;;;;;;;;;;;;;19.51;41.20;100082.03;7262013;19;152271;-65
2022/04/23 11:26:19;;;;;;;;;;;;;;;19.55;41.38;100079.41;7262153;19;153721;-67
2022/04/23 11:28:46;;;;;;;;;;;;;;;19.57;41.38;100071.50;7260422;19;153659;-63
2022/04/23 11:31:19;;;;;;;;;;;;;;;19.59;41.03;100079.56;7263187;19;153662;-65
2022/04/23 11:33:57;;;;;;;;;;;;;;;19.61;41.15;100060.47;7261529;19;154534;-61
2022/04/23 11:36:34;;;;;;;;;;;;;;;19.64;40.97;100071.03;7259208;19;154297;-65
2022/04/23 11:39:09;;;;;;;;;;;;;;;19.62;41.28;100071.38;7260677;19;154908;-63
2022/04/23 11:41:38;;;;;;;;;;;;;;;19.63;41.00;100075.81;7258951;19;154903;-63
2022/04/23 11:44:12;;;;;;;;;;;;;;;19.65;40.84;100070.72;7267773;19;154133;-66
2022/04/23 11:46:49;;;;;;;;;;;;;;;19.67;40.87;100064.78;7259891;19;154043;-61
2022/04/23 11:49:26;;;;;;;;;;;;;;;19.72;41.13;100073.03;7266131;19;154723;-63
2022/04/23 11:52:05;;;;;;;;;;;;;;;19.69;40.88;100063.31;7261595;19;153765;-66
2022/04/23 11:54:36;;;;;;;;;;;;;;;19.71;41.05;100061.03;7261340;19;156869;-63
2022/04/23 11:57:03;;;;;;;;;;;;;;;19.73;41.31;100067.13;7259399;19;154047;-65
2022/04/23 11:59:44;;;;;;;;;;;;;;;19.75;40.84;100062.03;7257652;19;153582;-66
2022/04/23 12:02:25;;;;;;;;;;;;;;;19.75;40.91;100053.63;7261954;19;154239;-62
2022/04/23 12:04:56;;;;;;;;;;;;;;;19.78;41.02;100055.75;7268139;19;155690;-63
2022/04/23 12:07:24;;;;;;;;;;;;;;;19.78;40.79;100060.53;7259175;19;152962;-62
2022/04/23 12:09:52;;;;;;;;;;;;;;;19.79;41.19;100050.97;7257746;19;154118;-67
2022/04/23 12:12:21;;;;;;;;;;;;;;;19.81;40.84;100048.66;7266762;19;154339;-62
2022/04/23 12:14:49;;;;;;;;;;;;;;;19.81;40.87;100049.50;7257969;19;153951;-67
2022/04/23 12:17:23;;;;;;;;;;;;;;;19.82;41.09;100048.34;7258282;19;154666;-66
2022/04/23 12:19:51;;;;;;;;;;;;;;;19.81;41.11;100043.88;7259050;19;153278;-62
2022/04/23 12:22:31;;;;;;;;;;;;;;;19.81;41.08;100046.69;7257841;19;155355;-64
2022/04/23 12:25:08;;;;;;;;;;;;;;;19.81;40.78;100052.28;7259909;19;154507;-65
2022/04/23 12:42:30;;;;;;;;;;;;;;;19.82;40.97;100025.91;7279755;19;153197;-65
2022/04/23 12:44:57;;;;;;;;;;;;;;;19.84;40.58;100017.19;7274629;19;154101;-64
2022/04/23 12:47:29;;;;;;;;;;;;;;;19.83;41.03;100030.38;7271846;19;156419;-64
2022/04/23 12:49:58;;;;;;;;;;;;;;;19.82;40.82;100028.72;7270663;19;155704;-66
2022/04/23 12:52:31;;;;;;;;;;;;;;;19.81;41.00;100041.09;7277609;19;154406;-65
2022/04/23 12:55:14;;;;;;;;;;;;;;;19.82;40.87;100033.50;7273308;19;153513;-65
2022/04/23 12:57:45;;;;;;;;;;;;;;;19.85;40.55;100038.47;7272860;19;154077;-65
2022/04/23 13:00:16;;;;;;;;;;;;;;;19.83;40.58;100036.00;7270036;19;152743;-62
2022/04/23 13:02:47;;;;;;;;;;;;;;;19.85;40.86;100024.47;7271540;19;153798;-66
2022/04/23 13:05:15;;;;;;;;;;;;;;;19.86;40.69;100024.13;7270732;19;154740;-62
2022/04/23 13:10:28;;;;;;;;;;;;;;;19.86;40.60;100021.31;7271471;19;156116;-64
2022/04/23 13:12:55;;;;;;;;;;;;;;;19.87;40.52;100014.56;7274108;19;153559;-62
2022/04/23 13:15:23;;;;;;;;;;;;;;;19.88;40.58;100016.22;7274584;19;154903;-66
2022/04/23 13:17:50;;;;;;;;;;;;;;;19.86;40.90;100028.88;7263637;19;154714;-66
2022/04/23 13:20:18;;;;;;;;;;;;;;;19.85;40.49;100014.03;7272318;19;153558;-64
2022/04/23 13:22:49;;;;;;;;;;;;;;;19.83;40.57;100019.16;7269006;19;154877;-65